Time;durP1;ratioP1;P1;durP2;ratioP2;P2;SDS_P1;SDS_P2;PMS_P1;PMS_P2;Temp;Humidity;BMP_temperature;BMP_pressure;BME280_temperature;BME280_humidity;BME280_pressure;Samples;Min_cycle;Max_cycle;Signal;HPM_P1;HPM_P2
2022/07/16 00:03:21;;;;;;;0.90;0.90;;;14.20;97.70;;;;;;6139210;29;20280;-67
2022/07/16 00:06:28;;;;;;;2.42;0.93;;;14.30;96.90;;;;;;6161365;29;20270;-66
2022/07/16 00:09:33;;;;;;;0.88;0.88;;;14.20;97.20;;;;;;6164332;28;20279;-66
2022/07/16 00:12:39;;;;;;;0.80;0.80;;;14.30;97.00;;;;;;6164666;28;20290;-66
2022/07/16 00:15:44;;;;;;;2.63;0.70;;;14.20;96.00;;;;;;6187935;28;20458;-66
2022/07/16 00:22:13;;;;;;;4.40;1.00;;;14.20;97.30;;;;;;6187799;28;20557;-66
2022/07/16 00:25:18;;;;;;;2.28;0.95;;;14.20;96.10;;;;;;6188011;28;20293;-66
2022/07/16 00:28:23;;;;;;;1.20;0.50;;;14.20;97.00;;;;;;6188052;28;20277;-66
2022/07/16 00:31:28;;;;;;;0.70;0.70;;;14.20;96.80;;;;;;6187801;28;20604;-66
2022/07/16 00:34:35;;;;;;;1.38;0.80;;;14.20;96.60;;;;;;6187841;28;20290;-66
2022/07/16 00:37:40;;;;;;;0.75;0.75;;;14.20;96.70;;;;;;6187143;28;20273;-66
2022/07/16 00:40:45;;;;;;;0.70;0.70;;;14.20;97.40;;;;;;6187470;28;20278;-66
2022/07/16 00:43:53;;;;;;;1.05;0.77;;;14.20;96.90;;;;;;6187285;28;20274;-66
2022/07/16 00:46:58;;;;;;;2.33;0.68;;;14.20;96.90;;;;;;6187175;28;20266;-66
2022/07/16 00:50:06;;;;;;;2.30;0.80;;;14.10;97.50;;;;;;6187577;28;20553;-66
2022/07/16 00:53:14;;;;;;;3.55;0.88;;;14.10;97.80;;;;;;6187035;28;20274;-66
2022/07/16 00:56:19;;;;;;;1.35;0.70;;;14.10;98.20;;;;;;6187745;28;20269;-66
2022/07/16 00:59:25;;;;;;;0.70;0.70;;;14.10;97.60;;;;;;6187198;28;20274;-66
2022/07/16 01:02:30;;;;;;;0.93;0.65;;;14.10;97.40;;;;;;6187448;28;20277;-66
2022/07/16 01:05:38;;;;;;;0.73;0.73;;;14.10;97.80;;;;;;6173464;28;20267;-66
2022/07/16 01:08:46;;;;;;;2.20;1.08;;;14.10;98.30;;;;;;6163762;28;20274;-66
2022/07/16 01:11:52;;;;;;;3.60;0.88;;;14.00;97.80;;;;;;6163360;28;20289;-66
2022/07/16 01:14:58;;;;;;;0.73;0.73;;;14.10;98.00;;;;;;6165635;28;20302;-66
2022/07/16 01:18:03;;;;;;;2.10;0.70;;;14.10;98.70;;;;;;6167526;29;20578;-66
2022/07/16 01:21:11;;;;;;;0.85;0.73;;;14.10;98.30;;;;;;6167128;29;20278;-66
2022/07/16 01:24:18;;;;;;;1.25;0.70;;;14.00;98.70;;;;;;6168007;28;20295;-66
2022/07/16 01:27:23;;;;;;;0.73;0.70;;;14.00;98.90;;;;;;6167639;29;20549;-66
2022/07/16 01:30:29;;;;;;;4.18;0.80;;;14.10;98.70;;;;;;6167624;29;20303;-66
2022/07/16 01:33:36;;;;;;;0.75;0.73;;;13.90;99.70;;;;;;6167085;29;20593;-66
2022/07/16 01:36:42;;;;;;;0.80;0.80;;;13.90;99.90;;;;;;6167499;29;20270;-66
2022/07/16 01:39:48;;;;;;;0.60;0.60;;;13.90;99.90;;;;;;6167502;29;20274;-66
2022/07/16 01:42:54;;;;;;;0.70;0.70;;;13.80;99.90;;;;;;6167000;29;20579;-66
2022/07/16 01:46:00;;;;;;;0.80;0.80;;;13.80;99.90;;;;;;6166914;29;20278;-66
2022/07/16 01:49:05;;;;;;;0.80;0.80;;;13.70;99.90;;;;;;6167356;28;20274;-66
2022/07/16 01:52:15;;;;;;;0.70;0.70;;;13.70;99.90;;;;;;6167078;29;20295;-66
2022/07/16 01:55:22;;;;;;;0.70;0.70;;;13.70;99.90;;;;;;6167007;29;20278;-66
2022/07/16 01:58:28;;;;;;;3.17;1.08;;;13.60;99.90;;;;;;6167175;28;20279;-66
2022/07/16 02:01:34;;;;;;;0.70;0.70;;;13.70;99.90;;;;;;6166907;29;20278;-66
2022/07/16 02:04:41;;;;;;;0.70;0.70;;;13.60;99.90;;;;;;6166844;29;20262;-66
2022/07/16 02:07:47;;;;;;;1.75;0.70;;;13.60;99.90;;;;;;6166299;28;20275;-66
2022/07/16 02:10:54;;;;;;;1.05;0.80;;;13.60;99.90;;;;;;6166539;28;20295;-66
2022/07/16 02:13:59;;;;;;;0.65;0.65;;;13.60;99.90;;;;;;6178019;28;20302;-66
2022/07/16 02:17:04;;;;;;;0.70;0.70;;;13.70;99.90;;;;;;6190013;28;20273;-66
2022/07/16 02:20:11;;;;;;;0.60;0.60;;;13.70;99.90;;;;;;6190289;28;20408;-66
2022/07/16 02:23:17;;;;;;;0.60;0.60;;;13.70;99.90;;;;;;6189794;28;20274;-66
2022/07/16 02:26:23;;;;;;;1.38;0.75;;;13.80;99.90;;;;;;6188931;28;20565;-66
2022/07/16 02:29:29;;;;;;;0.60;0.60;;;13.80;99.90;;;;;;6190045;28;20269;-66
2022/07/16 02:32:34;;;;;;;0.63;0.63;;;13.80;99.90;;;;;;6172788;28;20314;-66
2022/07/16 02:35:40;;;;;;;0.82;0.70;;;13.90;99.90;;;;;;6190061;28;20273;-66
2022/07/16 02:38:45;;;;;;;0.85;0.60;;;13.80;99.90;;;;;;6189712;28;20318;-66
2022/07/16 02:41:51;;;;;;;0.60;0.60;;;13.80;99.90;;;;;;6189398;28;20382;-66
2022/07/16 02:44:57;;;;;;;0.70;0.70;;;13.90;99.90;;;;;;6189142;28;20273;-66
2022/07/16 02:48:02;;;;;;;0.70;0.70;;;13.90;99.90;;;;;;6189529;28;20269;-66
2022/07/16 02:51:07;;;;;;;2.92;0.68;;;13.90;99.90;;;;;;6189265;28;20269;-66
2022/07/16 02:54:12;;;;;;;1.65;0.60;;;13.90;99.90;;;;;;6189162;28;20289;-66
2022/07/16 02:57:19;;;;;;;3.05;0.80;;;13.80;99.90;;;;;;6189456;28;20274;-66
2022/07/16 03:00:25;;;;;;;0.68;0.68;;;13.80;99.90;;;;;;6189059;28;20567;-66
2022/07/16 03:03:30;;;;;;;0.63;0.60;;;13.90;99.90;;;;;;6189214;28;20293;-66
2022/07/16 03:06:35;;;;;;;0.68;0.68;;;13.90;99.90;;;;;;6167376;28;20271;-66
2022/07/16 03:09:41;;;;;;;0.60;0.60;;;13.90;99.30;;;;;;6165075;29;20278;-66
2022/07/16 03:12:48;;;;;;;0.50;0.50;;;13.90;99.20;;;;;;6165070;28;20294;-66
2022/07/16 03:15:53;;;;;;;0.60;0.60;;;13.90;99.10;;;;;;6165435;28;20270;-66
2022/07/16 03:18:58;;;;;;;0.45;0.43;;;13.90;99.50;;;;;;6164990;28;20278;-66
2022/07/16 03:22:04;;;;;;;0.90;0.70;;;14.00;99.90;;;;;;6165109;28;20456;-66
2022/07/16 03:25:11;;;;;;;0.60;0.60;;;14.00;99.20;;;;;;6165256;28;20278;-66
2022/07/16 03:28:18;;;;;;;0.70;0.70;;;14.00;99.90;;;;;;6164630;29;20548;-66
2022/07/16 03:31:23;;;;;;;0.60;0.60;;;14.00;99.90;;;;;;6164967;29;20274;-66
2022/07/16 03:34:28;;;;;;;0.57;0.50;;;13.90;99.90;;;;;;6163864;28;20298;-66
2022/07/16 03:37:33;;;;;;;1.35;0.65;;;14.00;99.90;;;;;;6164430;28;20279;-66
2022/07/16 03:40:38;;;;;;;0.43;0.43;;;14.10;99.90;;;;;;6164373;29;20274;-66
2022/07/16 03:43:45;;;;;;;0.50;0.50;;;14.00;99.90;;;;;;6164745;29;20514;-66
2022/07/16 03:46:50;;;;;;;0.82;0.80;;;14.10;99.90;;;;;;6164618;29;20266;-66
2022/07/16 03:49:55;;;;;;;1.02;0.70;;;14.10;99.90;;;;;;6164633;28;20336;-66
2022/07/16 03:53:00;;;;;;;0.43;0.43;;;14.20;99.90;;;;;;6164476;29;20294;-66
2022/07/16 03:56:07;;;;;;;1.27;0.50;;;14.20;99.90;;;;;;6164442;29;20279;-65
2022/07/16 03:59:14;;;;;;;0.60;0.60;;;14.20;99.90;;;;;;6164616;28;20534;-67
2022/07/16 04:02:19;;;;;;;2.08;0.55;;;14.30;99.90;;;;;;6164598;28;20279;-67
2022/07/16 04:05:25;;;;;;;0.63;0.60;;;14.30;99.90;;;;;;6164399;29;20266;-65
2022/07/16 04:08:30;;;;;;;1.75;0.60;;;14.40;99.90;;;;;;6164205;28;20562;-65
2022/07/16 04:11:35;;;;;;;1.65;0.55;;;14.40;99.50;;;;;;6164148;28;20274;-66
2022/07/16 04:14:41;;;;;;;0.60;0.60;;;14.50;99.80;;;;;;6180844;28;20301;-65
2022/07/16 04:17:47;;;;;;;0.50;0.50;;;14.50;99.90;;;;;;6187497;28;20274;-66
2022/07/16 04:20:52;;;;;;;0.50;0.50;;;14.50;99.90;;;;;;6187242;28;20275;-66
2022/07/16 04:23:57;;;;;;;0.60;0.60;;;14.50;99.90;;;;;;6187918;28;20282;-65
2022/07/16 04:27:02;;;;;;;0.60;0.60;;;14.50;99.50;;;;;;6187998;28;20278;-65
2022/07/16 04:30:11;;;;;;;0.60;0.60;;;14.50;99.90;;;;;;6187813;28;20277;-67
2022/07/16 04:33:16;;;;;;;0.50;0.50;;;14.50;99.90;;;;;;6187894;28;20270;-66
2022/07/16 04:36:21;;;;;;;0.50;0.50;;;14.50;99.90;;;;;;6187585;28;20561;-67
2022/07/16 04:39:27;;;;;;;0.40;0.40;;;14.50;99.80;;;;;;6187504;28;20274;-67
2022/07/16 04:42:33;;;;;;;0.52;0.52;;;14.50;99.80;;;;;;6187464;28;20560;-67
2022/07/16 04:45:40;;;;;;;0.60;0.60;;;14.60;99.60;;;;;;6187811;28;20277;-66
2022/07/16 04:48:45;;;;;;;0.60;0.60;;;14.50;99.60;;;;;;6187840;28;20278;-67
2022/07/16 04:51:50;;;;;;;0.57;0.57;;;14.50;99.90;;;;;;6192399;28;20293;-67
2022/07/16 04:54:56;;;;;;;0.50;0.50;;;14.70;99.80;;;;;;6192337;28;20298;-67
2022/07/16 04:58:00;;;;;;;2.83;0.60;;;14.80;99.40;;;;;;6192235;28;20274;-67
2022/07/16 05:01:07;;;;;;;1.15;0.60;;;14.70;98.10;;;;;;6192109;28;20270;-67
2022/07/16 05:04:12;;;;;;;0.40;0.40;;;14.70;98.50;;;;;;6189246;28;20530;-67
2022/07/16 05:07:18;;;;;;;0.47;0.47;;;14.70;98.50;;;;;;6168297;29;20569;-67
2022/07/16 05:10:24;;;;;;;0.40;0.40;;;14.90;97.80;;;;;;6167884;28;20578;-66
2022/07/16 05:13:29;;;;;;;0.52;0.52;;;14.80;97.70;;;;;;6167898;28;20299;-66
2022/07/16 05:16:36;;;;;;;0.57;0.57;;;14.90;97.00;;;;;;6167395;29;20464;-66
2022/07/16 05:19:44;;;;;;;0.70;0.70;;;14.90;97.60;;;;;;6167537;29;20274;-66
2022/07/16 05:22:50;;;;;;;1.88;0.65;;;15.00;97.10;;;;;;6167873;29;20276;-66
2022/07/16 05:25:55;;;;;;;0.40;0.40;;;15.00;97.00;;;;;;6167573;28;20349;-66
2022/07/16 05:29:00;;;;;;;1.58;0.50;;;15.00;96.80;;;;;;6167790;29;20279;-67
2022/07/16 05:32:07;;;;;;;0.50;0.50;;;15.10;97.10;;;;;;6167376;29;20274;-67
2022/07/16 05:35:14;;;;;;;0.65;0.65;;;15.10;96.60;;;;;;6167710;29;20294;-67
2022/07/16 05:38:19;;;;;;;0.60;0.60;;;15.10;96.20;;;;;;6167474;29;20274;-67
2022/07/16 05:41:24;;;;;;;0.50;0.50;;;15.10;96.20;;;;;;6167395;29;20274;-67
2022/07/16 05:44:30;;;;;;;0.65;0.65;;;15.10;96.30;;;;;;6167427;29;20283;-67
2022/07/16 05:47:36;;;;;;;0.60;0.60;;;15.00;95.80;;;;;;6167178;28;20322;-67
2022/07/16 05:50:42;;;;;;;0.50;0.50;;;15.00;96.40;;;;;;6166942;28;20274;-67
2022/07/16 05:53:47;;;;;;;0.40;0.40;;;15.10;96.70;;;;;;6167192;28;20459;-67
2022/07/16 05:56:53;;;;;;;0.38;0.38;;;15.10;95.30;;;;;;6166615;29;20466;-67
2022/07/16 05:59:58;;;;;;;0.45;0.45;;;15.00;93.90;;;;;;6166408;28;20274;-67
2022/07/16 06:03:04;;;;;;;1.55;0.50;;;15.00;94.60;;;;;;6165797;28;20278;-66
2022/07/16 06:06:10;;;;;;;0.50;0.50;;;15.10;94.80;;;;;;6166302;29;20271;-67
2022/07/16 06:09:15;;;;;;;0.47;0.47;;;15.30;95.50;;;;;;6166839;28;20275;-67
2022/07/16 06:12:20;;;;;;;0.50;0.50;;;15.20;95.90;;;;;;6166281;29;20561;-67
2022/07/16 06:15:26;;;;;;;0.50;0.50;;;15.10;95.40;;;;;;6189125;28;20311;-67
2022/07/16 06:18:32;;;;;;;0.52;0.52;;;14.90;95.10;;;;;;6190474;28;20577;-67
2022/07/16 06:21:38;;;;;;;0.65;0.50;;;15.00;96.30;;;;;;6190404;28;20278;-67
2022/07/16 06:24:43;;;;;;;0.50;0.50;;;14.90;95.40;;;;;;6190338;28;20278;-66
2022/07/16 06:27:49;;;;;;;0.75;0.50;;;15.00;96.40;;;;;;6190215;28;20273;-67
2022/07/16 06:30:54;;;;;;;0.50;0.50;;;15.10;95.60;;;;;;6190357;28;20273;-67
2022/07/16 06:34:01;;;;;;;1.10;0.60;;;15.10;95.30;;;;;;6190142;28;20553;-67
2022/07/16 06:37:06;;;;;;;0.40;0.40;;;15.20;95.90;;;;;;6189997;28;20309;-67
2022/07/16 06:40:13;;;;;;;0.30;0.30;;;15.30;94.30;;;;;;6189515;28;20321;-67
2022/07/16 06:43:18;;;;;;;0.50;0.50;;;15.30;94.60;;;;;;6189800;28;20278;-67
2022/07/16 06:46:24;;;;;;;0.65;0.65;;;15.40;93.60;;;;;;6189910;28;20282;-67
2022/07/16 06:49:31;;;;;;;0.55;0.55;;;15.50;93.10;;;;;;6189817;28;20274;-67
2022/07/16 06:52:37;;;;;;;0.75;0.50;;;15.70;94.30;;;;;;6189473;28;20464;-67
2022/07/16 06:55:42;;;;;;;0.73;0.68;;;15.90;93.60;;;;;;6189680;28;20293;-67
2022/07/16 06:58:47;;;;;;;0.57;0.57;;;16.00;93.40;;;;;;6189059;28;20277;-67
2022/07/16 07:01:52;;;;;;;0.43;0.43;;;16.10;92.90;;;;;;6189468;28;20362;-67
2022/07/16 07:04:59;;;;;;;0.50;0.50;;;16.30;92.90;;;;;;6180209;28;20360;-66
2022/07/16 07:08:05;;;;;;;0.47;0.47;;;16.40;91.90;;;;;;6165350;29;20278;-65
2022/07/16 07:11:11;;;;;;;0.68;0.68;;;16.30;92.00;;;;;;6165542;28;20459;-66
2022/07/16 07:14:17;;;;;;;0.60;0.60;;;16.40;93.20;;;;;;6165150;28;20585;-66
2022/07/16 07:17:22;;;;;;;0.60;0.60;;;16.40;92.60;;;;;;6164950;28;20291;-66
2022/07/16 07:20:29;;;;;;;0.55;0.55;;;16.20;91.90;;;;;;6164812;29;20270;-66
2022/07/16 07:23:35;;;;;;;0.50;0.50;;;16.40;92.40;;;;;;6165147;29;20287;-66
2022/07/16 07:26:40;;;;;;;0.60;0.60;;;16.20;92.20;;;;;;6164992;29;20573;-66
2022/07/16 07:29:46;;;;;;;0.57;0.57;;;16.50;92.20;;;;;;6164727;28;20279;-66
2022/07/16 07:32:51;;;;;;;0.50;0.50;;;17.00;93.30;;;;;;6164414;29;20270;-66
2022/07/16 07:35:57;;;;;;;0.50;0.50;;;17.00;93.00;;;;;;6164214;29;20339;-66
2022/07/16 07:39:03;;;;;;;0.68;0.68;;;16.90;91.40;;;;;;6164753;29;20274;-66
2022/07/16 07:42:09;;;;;;;0.40;0.40;;;17.00;91.90;;;;;;6164698;29;20282;-66
2022/07/16 07:45:14;;;;;;;0.40;0.40;;;16.80;90.00;;;;;;6164756;29;20507;-67
2022/07/16 07:48:20;;;;;;;0.50;0.50;;;17.00;90.80;;;;;;6163967;29;20278;-67
2022/07/16 07:51:26;;;;;;;0.50;0.50;;;17.20;90.50;;;;;;6164587;29;20276;-67
2022/07/16 07:54:31;;;;;;;0.40;0.40;;;17.40;90.50;;;;;;6164509;29;20434;-66
2022/07/16 07:57:37;;;;;;;0.40;0.40;;;17.30;90.80;;;;;;6164159;28;20287;-67
2022/07/16 08:00:42;;;;;;;0.50;0.50;;;17.30;91.10;;;;;;6164221;28;20278;-66
2022/07/16 08:04:00;;;;;;;0.50;0.50;;;17.20;91.90;;;;;;6164313;29;20286;-67
2022/07/16 08:07:07;;;;;;;0.50;0.50;;;17.20;92.20;;;;;;6164293;28;20278;-67
2022/07/16 08:10:13;;;;;;;0.40;0.40;;;17.20;91.20;;;;;;6164142;29;20270;-67
2022/07/16 08:13:18;;;;;;;0.50;0.50;;;17.00;90.80;;;;;;6169967;28;20458;-67
2022/07/16 08:16:24;;;;;;;0.90;0.55;;;17.00;89.80;;;;;;6187887;28;20293;-67
2022/07/16 08:19:31;;;;;;;0.50;0.50;;;17.10;90.00;;;;;;6187475;28;20274;-67
2022/07/16 08:22:38;;;;;;;1.17;0.60;;;17.30;90.20;;;;;;6187638;28;20281;-67
2022/07/16 08:25:45;;;;;;;1.13;0.50;;;17.40;90.70;;;;;;6190756;28;20466;-67
2022/07/16 08:28:50;;;;;;;0.88;0.43;;;17.20;90.20;;;;;;6192746;28;20577;-67
2022/07/16 08:31:56;;;;;;;0.38;0.38;;;17.30;90.70;;;;;;6192902;28;20578;-67
2022/07/16 08:35:01;;;;;;;0.88;0.60;;;17.20;90.30;;;;;;6192780;28;20569;-67
2022/07/16 08:38:11;;;;;;;0.52;0.52;;;17.40;90.60;;;;;;6192436;28;20479;-67
2022/07/16 08:41:16;;;;;;;0.47;0.47;;;17.60;90.40;;;;;;6192694;28;20285;-67
2022/07/16 08:44:22;;;;;;;0.60;0.60;;;17.60;91.00;;;;;;6192564;28;20269;-67
2022/07/16 08:47:27;;;;;;;0.60;0.60;;;17.50;90.60;;;;;;6192524;28;20580;-67
2022/07/16 08:50:33;;;;;;;0.30;0.30;;;17.30;89.40;;;;;;6192283;28;20274;-66
2022/07/16 08:53:41;;;;;;;0.40;0.30;;;17.10;89.00;;;;;;6192344;28;20274;-66
2022/07/16 08:56:47;;;;;;;0.50;0.50;;;17.20;90.80;;;;;;6192176;28;20273;-66
2022/07/16 08:59:54;;;;;;;0.50;0.50;;;17.10;89.50;;;;;;6192001;28;20269;-67
2022/07/16 09:02:59;;;;;;;0.40;0.40;;;17.00;89.10;;;;;;6192263;28;20273;-67
2022/07/16 09:06:05;;;;;;;2.38;0.50;;;17.10;89.50;;;;;;6173487;28;20270;-66
2022/07/16 09:09:12;;;;;;;0.50;0.50;;;17.40;90.60;;;;;;6167941;28;20278;-67
2022/07/16 09:12:35;;;;;;;0.65;0.65;;;17.20;89.70;;;;;;6167626;28;20439;-66
2022/07/16 09:15:42;;;;;;;1.40;1.30;;;17.20;90.30;;;;;;6143960;29;20295;-66
2022/07/16 09:18:47;;;;;;;0.70;0.70;;;17.20;90.60;;;;;;6143732;29;20458;-66
2022/07/16 09:22:02;;;;;;;1.08;1.08;;;17.20;90.60;;;;;;6143862;29;20274;-67
2022/07/16 09:25:11;;;;;;;13.80;8.27;;;17.20;90.70;;;;;;6143660;29;20279;-67
2022/07/16 09:28:18;;;;;;;2.05;2.05;;;16.90;90.70;;;;;;6143289;29;20274;-66
2022/07/16 09:31:38;;;;;;;4.40;3.97;;;16.90;90.70;;;;;;6143341;29;20279;-67
2022/07/16 09:34:44;;;;;;;1.42;1.33;;;17.10;90.50;;;;;;6143436;29;20559;-67
2022/07/16 09:37:51;;;;;;;2.42;1.13;;;17.20;90.40;;;;;;6142855;29;20295;-67
2022/07/16 09:41:02;;;;;;;1.00;1.00;;;17.30;91.20;;;;;;6143341;29;20572;-67
2022/07/16 09:44:15;;;;;;;0.70;0.70;;;17.10;88.70;;;;;;6143016;29;20278;-67
2022/07/16 09:47:22;;;;;;;1.08;1.05;;;17.00;88.10;;;;;;6142965;29;20276;-66
2022/07/16 09:50:37;;;;;;;0.60;0.60;;;16.70;88.50;;;;;;6142856;29;20275;-67
2022/07/16 09:53:43;;;;;;;1.17;0.60;;;16.60;89.00;;;;;;6143002;29;20293;-67
2022/07/16 09:57:06;;;;;;;0.60;0.60;;;16.80;91.10;;;;;;6143001;29;20270;-67
2022/07/16 10:00:13;;;;;;;1.45;0.57;;;16.90;89.00;;;;;;6142835;29;20299;-67
2022/07/16 10:03:20;;;;;;;0.50;0.50;;;17.00;90.90;;;;;;6143093;29;20461;-67
2022/07/16 10:06:28;;;;;;;1.80;1.73;;;17.00;89.10;;;;;;6122923;29;20267;-67
2022/07/16 10:09:33;;;;;;;1.20;1.20;;;17.00;86.30;;;;;;6118936;29;20285;-67
2022/07/16 10:12:41;;;;;;;0.90;0.90;;;17.10;88.00;;;;;;6119748;29;20300;-67
2022/07/16 10:15:47;;;;;;;0.70;0.70;;;17.30;87.60;;;;;;6142624;29;20272;-67
2022/07/16 10:19:01;;;;;;;1.20;0.70;;;17.20;86.20;;;;;;6142381;29;20298;-67
2022/07/16 10:22:23;;;;;;;0.43;0.43;;;17.40;86.80;;;;;;6142575;29;20275;-67
2022/07/16 10:25:28;;;;;;;2.50;0.63;;;17.40;86.00;;;;;;6142693;29;20274;-67
2022/07/16 10:28:45;;;;;;;0.50;0.50;;;17.40;87.70;;;;;;6142585;29;20284;-68
2022/07/16 10:35:32;;;;;;;0.55;0.55;;;17.50;87.50;;;;;;6141958;29;20559;-67
2022/07/16 10:38:37;;;;;;;1.08;0.60;;;17.40;89.00;;;;;;6141920;29;20295;-66
2022/07/16 10:41:50;;;;;;;0.30;0.30;;;17.40;85.70;;;;;;6142300;29;20275;-67
2022/07/16 10:44:57;;;;;;;0.90;0.32;;;17.40;87.40;;;;;;6142102;29;20274;-67
2022/07/16 10:48:02;;;;;;;5.15;4.80;;;17.40;84.70;;;;;;6141336;29;20425;-67
2022/07/16 10:51:16;;;;;;;3.33;3.13;;;17.20;82.50;;;;;;6142050;29;20283;-67
2022/07/16 10:54:21;;;;;;;1.00;1.00;;;17.30;85.70;;;;;;6141867;29;20279;-68
2022/07/16 10:57:34;;;;;;;1.10;1.10;;;17.40;84.50;;;;;;6142144;29;20275;-68
2022/07/16 11:00:41;;;;;;;0.70;0.70;;;17.60;84.80;;;;;;6141399;29;20295;-67
2022/07/16 11:03:51;;;;;;;0.70;0.57;;;17.50;81.90;;;;;;6141843;29;20276;-68
2022/07/16 11:07:00;;;;;;;0.80;0.63;;;17.60;82.80;;;;;;6141824;29;20275;-67
2022/07/16 11:10:07;;;;;;;0.52;0.52;;;17.80;84.90;;;;;;6141644;29;20275;-67
2022/07/16 11:13:17;;;;;;;4.68;0.50;;;17.90;82.50;;;;;;6141331;29;20302;-67
2022/07/16 11:16:25;;;;;;;0.57;0.57;;;18.00;83.00;;;;;;6141244;29;20275;-67
2022/07/16 11:19:35;;;;;;;0.80;0.80;;;17.90;82.40;;;;;;6141640;29;20291;-66
2022/07/16 11:22:47;;;;;;;0.60;0.60;;;18.20;84.80;;;;;;6141294;29;20275;-66
2022/07/16 11:25:59;;;;;;;0.50;0.50;;;18.30;84.80;;;;;;6141585;29;20279;-67
2022/07/16 11:29:05;;;;;;;0.40;0.40;;;18.30;84.80;;;;;;6141261;29;20284;-67
2022/07/16 11:32:17;;;;;;;0.43;0.43;;;18.30;85.20;;;;;;6140966;29;20276;-67
2022/07/16 11:35:22;;;;;;;0.50;0.50;;;18.30;85.30;;;;;;6141127;29;20279;-67
2022/07/16 11:38:27;;;;;;;0.80;0.52;;;18.20;83.00;;;;;;6140699;29;20279;-67
2022/07/16 11:41:34;;;;;;;0.50;0.50;;;18.10;85.30;;;;;;6140387;29;20586;-67
2022/07/16 11:44:41;;;;;;;0.50;0.50;;;18.30;83.80;;;;;;6140635;29;20280;-68
2022/07/16 11:47:48;;;;;;;0.47;0.47;;;18.50;83.30;;;;;;6140891;28;20279;-66
2022/07/16 11:50:54;;;;;;;0.68;0.68;;;18.60;82.00;;;;;;6140695;28;20275;-66
2022/07/16 11:53:59;;;;;;;1.48;0.57;;;18.30;80.80;;;;;;6140737;29;20274;-68
2022/07/16 11:57:05;;;;;;;0.47;0.47;;;18.40;84.10;;;;;;6140695;29;20278;-68
2022/07/16 12:00:13;;;;;;;0.65;0.40;;;18.40;84.80;;;;;;6139600;29;20294;-68
2022/07/16 12:03:20;;;;;;;0.40;0.40;;;18.40;84.50;;;;;;6140286;29;20275;-66
2022/07/16 12:06:27;;;;;;;0.60;0.60;;;18.50;85.40;;;;;;6181358;28;20265;-66
2022/07/16 12:09:34;;;;;;;0.70;0.57;;;18.30;86.30;;;;;;6187710;28;20282;-67
2022/07/16 12:12:40;;;;;;;0.50;0.50;;;18.00;84.00;;;;;;6187630;28;20450;-67
2022/07/16 12:15:55;;;;;;;0.52;0.52;;;17.90;85.50;;;;;;6188056;28;20277;-66
2022/07/16 12:19:05;;;;;;;0.47;0.47;;;18.00;84.00;;;;;;6187573;28;20291;-66
2022/07/16 12:22:12;;;;;;;0.55;0.55;;;17.90;83.90;;;;;;6187800;28;20313;-66
2022/07/16 12:25:22;;;;;;;0.63;0.63;;;18.00;84.20;;;;;;6187911;28;20277;-67
2022/07/16 12:28:27;;;;;;;3.95;3.85;;;18.00;83.20;;;;;;6187871;28;20273;-67
2022/07/16 12:31:35;;;;;;;2.60;2.60;;;18.10;83.50;;;;;;6187832;28;20277;-66
2022/07/16 12:34:44;;;;;;;2.63;2.53;;;18.10;84.60;;;;;;6187824;28;20273;-66
2022/07/16 12:37:50;;;;;;;4.43;4.30;;;18.10;84.60;;;;;;6187432;28;20462;-66
2022/07/16 12:40:55;;;;;;;1.73;1.73;;;18.00;84.50;;;;;;6187600;28;20584;-66
2022/07/16 12:44:03;;;;;;;6.00;5.50;;;17.90;84.20;;;;;;6187011;28;20273;-66
2022/07/16 12:47:09;;;;;;;6.85;6.25;;;17.90;84.40;;;;;;6187197;28;20278;-66
2022/07/16 12:50:16;;;;;;;5.97;5.47;;;17.80;84.50;;;;;;6187632;28;20277;-66
2022/07/16 12:53:21;;;;;;;3.00;2.90;;;17.90;84.60;;;;;;6187063;28;20278;-66
2022/07/16 12:59:51;;;;;;;1.70;1.27;;;18.00;85.80;;;;;;6187295;28;20293;-66
2022/07/16 13:02:57;;;;;;;0.70;0.70;;;18.00;83.70;;;;;;6187489;28;20273;-67
2022/07/16 13:06:04;;;;;;;0.80;0.80;;;18.10;85.70;;;;;;6169991;28;20538;-66
2022/07/16 13:09:10;;;;;;;0.80;0.70;;;18.10;85.20;;;;;;6163475;28;20451;-66
2022/07/16 13:12:15;;;;;;;1.75;0.65;;;18.20;85.10;;;;;;6167163;28;20537;-66
2022/07/16 13:15:21;;;;;;;2.45;0.50;;;18.40;85.40;;;;;;6168121;28;20298;-67
2022/07/16 13:18:27;;;;;;;0.55;0.55;;;18.40;87.00;;;;;;6167190;28;20275;-66
2022/07/16 13:21:36;;;;;;;0.40;0.40;;;18.30;88.60;;;;;;6167571;29;20294;-67
2022/07/16 13:24:42;;;;;;;0.45;0.45;;;18.20;87.10;;;;;;6167794;29;20270;-67
2022/07/16 13:27:48;;;;;;;0.65;0.65;;;18.30;86.20;;;;;;6167714;29;20278;-67
2022/07/16 13:30:53;;;;;;;0.82;0.73;;;18.30;85.50;;;;;;6167923;29;20278;-67
2022/07/16 13:33:58;;;;;;;0.50;0.50;;;18.40;87.90;;;;;;6167737;28;20356;-67
2022/07/16 13:37:05;;;;;;;0.90;0.90;;;18.40;87.00;;;;;;6167222;29;20326;-67
2022/07/16 13:40:13;;;;;;;2.97;0.50;;;18.70;86.50;;;;;;6167706;28;20275;-67
2022/07/16 13:43:19;;;;;;;0.40;0.40;;;19.50;84.60;;;;;;6167345;29;20279;-67
2022/07/16 13:46:25;;;;;;;0.60;0.60;;;19.70;84.10;;;;;;6167172;28;20275;-67
2022/07/16 13:49:31;;;;;;;0.60;0.60;;;19.20;80.80;;;;;;6167389;29;20541;-67
2022/07/16 13:52:38;;;;;;;0.50;0.50;;;19.10;82.10;;;;;;6167284;29;20601;-67
2022/07/16 13:55:44;;;;;;;1.38;0.45;;;19.00;80.60;;;;;;6166853;29;20274;-67
2022/07/16 13:58:49;;;;;;;0.50;0.50;;;19.20;79.00;;;;;;6166530;29;20574;-67
2022/07/16 14:01:54;;;;;;;0.55;0.50;;;19.60;79.60;;;;;;6166948;28;20365;-67
2022/07/16 14:04:59;;;;;;;0.50;0.50;;;19.00;81.60;;;;;;6175459;28;20270;-67
2022/07/16 14:08:07;;;;;;;1.70;0.70;;;18.70;84.70;;;;;;6190205;28;20273;-67
2022/07/16 14:11:15;;;;;;;0.60;0.60;;;18.30;86.00;;;;;;6190374;28;20464;-67
2022/07/16 14:14:21;;;;;;;2.35;0.65;;;18.10;87.10;;;;;;6190005;28;20307;-67
2022/07/16 14:17:26;;;;;;;0.85;0.60;;;17.90;87.60;;;;;;6190492;28;20274;-67
2022/07/16 14:20:32;;;;;;;2.20;0.65;;;17.80;88.50;;;;;;6190420;28;20273;-67
2022/07/16 14:23:39;;;;;;;1.13;1.13;;;17.70;89.20;;;;;;6189089;28;20480;-67
2022/07/16 14:26:44;;;;;;;1.70;1.67;;;17.70;89.20;;;;;;6189917;28;20302;-67
2022/07/16 14:29:49;;;;;;;1.40;1.40;;;17.80;90.00;;;;;;6190144;28;20274;-67
2022/07/16 14:32:55;;;;;;;0.85;0.85;;;17.60;89.00;;;;;;6190078;28;20278;-66
2022/07/16 14:36:00;;;;;;;4.85;4.55;;;17.70;87.80;;;;;;6190042;28;20277;-67
2022/07/16 14:39:07;;;;;;;1.48;0.68;;;17.60;87.30;;;;;;6189832;28;20293;-67
2022/07/16 14:42:13;;;;;;;0.40;0.40;;;17.60;86.80;;;;;;6189736;28;20294;-66
2022/07/16 14:45:20;;;;;;;0.30;0.30;;;17.60;86.80;;;;;;6189955;28;20274;-67
2022/07/16 14:48:26;;;;;;;0.32;0.32;;;17.80;86.10;;;;;;6172573;28;20273;-67
2022/07/16 14:51:32;;;;;;;1.27;0.63;;;17.60;86.30;;;;;;6189596;28;20277;-68
2022/07/16 14:54:39;;;;;;;0.68;0.50;;;17.60;86.70;;;;;;6189427;28;20461;-68
2022/07/16 14:57:46;;;;;;;2.65;2.50;;;17.60;86.90;;;;;;6189038;28;20269;-68
2022/07/16 15:00:51;;;;;;;4.25;4.07;;;17.70;88.00;;;;;;6189249;28;20273;-67
2022/07/16 15:03:56;;;;;;;1.27;0.90;;;17.80;87.20;;;;;;6188669;28;20293;-67
2022/07/16 15:07:02;;;;;;;0.52;0.52;;;17.70;87.50;;;;;;6165259;29;20278;-67
2022/07/16 15:10:09;;;;;;;0.70;0.70;;;17.70;87.20;;;;;;6165580;29;20274;-67
2022/07/16 15:13:20;;;;;;;0.63;0.63;;;17.70;86.60;;;;;;6165366;28;20302;-67
2022/07/16 15:16:27;;;;;;;0.60;0.60;;;17.70;87.20;;;;;;6165352;29;20549;-68
2022/07/16 15:19:32;;;;;;;0.60;0.60;;;17.70;88.20;;;;;;6165520;28;20274;-67
2022/07/16 15:22:39;;;;;;;0.70;0.70;;;17.60;87.70;;;;;;6164926;29;20295;-68
2022/07/16 15:25:45;;;;;;;1.10;1.10;;;17.60;88.80;;;;;;6165118;29;20459;-68
2022/07/16 15:28:50;;;;;;;4.30;4.00;;;17.40;89.30;;;;;;6165325;28;20274;-67
2022/07/16 15:31:56;;;;;;;1.30;1.30;;;17.40;90.30;;;;;;6164493;29;20267;-67
2022/07/16 15:35:01;;;;;;;0.80;0.80;;;17.30;91.30;;;;;;6164188;28;20470;-67
2022/07/16 15:38:07;;;;;;;0.70;0.70;;;17.40;91.70;;;;;;6164754;28;20282;-67
2022/07/16 15:41:14;;;;;;;1.67;0.80;;;17.30;90.00;;;;;;6164941;29;20271;-67
2022/07/16 15:44:19;;;;;;;0.43;0.43;;;17.10;90.60;;;;;;6164631;29;20294;-68
2022/07/16 15:47:25;;;;;;;4.03;0.95;;;17.20;91.00;;;;;;6164754;29;20270;-67
2022/07/16 15:50:32;;;;;;;0.70;0.70;;;17.30;90.80;;;;;;6165083;28;20275;-67
2022/07/16 15:53:38;;;;;;;0.90;0.90;;;17.10;90.90;;;;;;6165005;28;20278;-67
2022/07/16 15:56:44;;;;;;;0.55;0.55;;;16.80;91.60;;;;;;6164219;29;20470;-67
2022/07/16 15:59:49;;;;;;;0.40;0.40;;;16.90;91.70;;;;;;6164515;28;20270;-67
2022/07/16 16:02:55;;;;;;;0.47;0.47;;;16.90;91.40;;;;;;6163779;28;20485;-67
2022/07/16 16:06:00;;;;;;;1.73;0.40;;;16.80;91.50;;;;;;6181422;28;20269;-67
2022/07/16 16:09:07;;;;;;;0.40;0.40;;;16.60;91.90;;;;;;6187815;28;20553;-67
2022/07/16 16:12:14;;;;;;;0.70;0.70;;;16.40;91.90;;;;;;6187816;28;20293;-67
2022/07/16 16:15:19;;;;;;;0.75;0.70;;;16.40;92.60;;;;;;6188227;28;20301;-67
2022/07/16 16:18:24;;;;;;;0.60;0.60;;;16.50;92.30;;;;;;6188102;28;20568;-67
2022/07/16 16:21:30;;;;;;;0.60;0.60;;;16.50;92.50;;;;;;6187791;28;20274;-67
2022/07/16 16:24:36;;;;;;;0.70;0.70;;;16.50;92.70;;;;;;6187614;28;20298;-68